LFAQ

Details ICAO LFAQ
Name Albert Bray
Region France
Timezone Europe/Paris (UTC+1.0)
Plans Departing 8
Arriving 16
Stats Elevation 364 ft / 111 m (AMSL)
Location 49.971529° 2.697660°
Runways 1
Magnetic Variation 0.621° E
Sunrise 2017-12-18 07:44:38 UTC / 2017-12-18 08:44:38 Local
Sunset 2017-12-18 15:49:43 UTC / 2017-12-18 16:49:43 Local
Advertisement - Login to hide

Runways

ID Width Length Bearing (true) Bearing (mag) Surface Threshold Offset Overrun Length
09 82 ft / 25 m 3,827 ft / 1,167 m 89.92° 89.30° Asphalt 623 ft / 190 m 0 ft / 0 m
27 82 ft / 25 m 3,827 ft / 1,167 m 269.93° 269.31° Asphalt 820 ft / 250 m 0 ft / 0 m

Map

Weather


0- 5 10 15 20 25 30 35+ Temperature / ° C

Clouds and Precipitation
Forecast for 2017-12-18 18:00 UTC. Updated 2 hours ago

Ground ~20,000 ft ~40,000 ft Winds

METAR

LFAQ 181700Z AUTO 34007KT CAVOK 05/04 Q1029 NOSIG

TAF

Not found
Warning: Do not use this data for real-world aviation or navigation. No guarantee of current accuracy is given.